createdAt,value
2023-06-30T00:00:12.485Z,12.46
2023-06-30T00:03:00.245Z,12.42
2023-06-30T00:05:28.588Z,12.41
2023-06-30T00:07:59.167Z,12.40
2023-06-30T00:10:26.361Z,12.40
2023-06-30T00:12:53.229Z,12.40
2023-06-30T00:15:20.142Z,12.39
2023-06-30T00:17:49.116Z,12.38
2023-06-30T00:20:16.278Z,12.38
2023-06-30T00:22:44.637Z,12.37
2023-06-30T00:25:12.890Z,12.36
2023-06-30T00:27:42.013Z,12.36
2023-06-30T00:30:09.159Z,12.35
2023-06-30T00:32:35.890Z,12.35
2023-06-30T00:35:04.028Z,12.34
2023-06-30T00:37:31.612Z,12.34
2023-06-30T00:39:58.489Z,12.36
2023-06-30T00:42:25.651Z,12.36
2023-06-30T00:44:54.772Z,12.37
2023-06-30T00:47:21.817Z,12.39
2023-06-30T00:49:48.807Z,12.41
2023-06-30T00:52:15.631Z,12.39
2023-06-30T00:54:42.759Z,12.35
2023-06-30T00:57:10.072Z,12.30
2023-06-30T00:59:36.736Z,12.25
2023-06-30T01:02:07.641Z,12.21
2023-06-30T01:05:00.829Z,12.17
2023-06-30T01:07:34.188Z,12.11
2023-06-30T01:10:04.288Z,12.07
2023-06-30T01:12:32.261Z,12.04
2023-06-30T01:15:00.258Z,12.01
2023-06-30T01:17:27.696Z,11.99
2023-06-30T01:19:55.095Z,11.99
2023-06-30T01:22:25.400Z,11.99
2023-06-30T01:24:55.946Z,12.00
2023-06-30T01:27:22.750Z,11.99
2023-06-30T01:29:51.335Z,11.98
2023-06-30T01:32:18.813Z,11.98
2023-06-30T01:34:45.718Z,11.98
2023-06-30T01:37:13.521Z,11.95
2023-06-30T01:39:40.861Z,11.95
2023-06-30T01:42:08.492Z,11.90
2023-06-30T01:44:36.327Z,11.86
2023-06-30T01:47:03.755Z,11.84
2023-06-30T01:49:30.631Z,11.84
2023-06-30T01:51:57.684Z,11.84
2023-06-30T01:54:24.525Z,11.84
2023-06-30T01:56:53.122Z,11.84
2023-06-30T01:59:20.073Z,11.84
2023-06-30T02:01:47.663Z,11.85
2023-06-30T02:04:16.186Z,11.86
2023-06-30T02:06:47.007Z,11.86
2023-06-30T02:09:14.144Z,11.85
2023-06-30T02:11:41.174Z,11.82
2023-06-30T02:14:08.074Z,11.77
2023-06-30T02:16:35.094Z,11.72
2023-06-30T02:19:02.235Z,11.70
2023-06-30T02:21:29.135Z,11.70
2023-06-30T02:23:56.158Z,11.71
2023-06-30T02:26:22.930Z,11.72
2023-06-30T02:28:50.051Z,11.71
2023-06-30T02:31:17.520Z,11.70
2023-06-30T02:33:44.302Z,11.70
2023-06-30T02:36:11.244Z,11.71
2023-06-30T02:38:38.355Z,11.72
2023-06-30T02:41:05.067Z,11.73
2023-06-30T02:43:31.765Z,11.75
2023-06-30T02:45:59.677Z,11.76
2023-06-30T02:48:27.894Z,11.78
2023-06-30T02:50:54.939Z,11.79
2023-06-30T02:53:22.102Z,11.80
2023-06-30T02:55:49.318Z,11.82
2023-06-30T02:58:16.205Z,11.83
2023-06-30T03:00:43.234Z,11.84
2023-06-30T03:03:11.021Z,11.86
2023-06-30T03:05:38.682Z,11.89
2023-06-30T03:08:06.683Z,11.91
2023-06-30T03:10:34.076Z,11.94
2023-06-30T03:13:00.931Z,11.97
2023-06-30T03:15:27.817Z,12.00
2023-06-30T03:17:56.183Z,12.05
2023-06-30T03:20:24.040Z,12.11
2023-06-30T03:22:52.594Z,12.15
2023-06-30T03:25:19.925Z,12.21
2023-06-30T03:27:47.125Z,12.25
2023-06-30T03:30:14.457Z,12.27
2023-06-30T03:32:44.429Z,12.25
2023-06-30T03:35:11.518Z,12.22
2023-06-30T03:37:38.369Z,12.23
2023-06-30T03:40:06.320Z,12.27
2023-06-30T03:42:33.656Z,12.31
2023-06-30T03:45:01.112Z,12.38
2023-06-30T03:47:28.279Z,12.48
2023-06-30T03:49:55.477Z,12.60
2023-06-30T03:52:22.430Z,12.75
2023-06-30T03:54:49.554Z,12.90
2023-06-30T03:57:16.426Z,13.07
2023-06-30T03:59:43.380Z,13.20
2023-06-30T04:02:10.042Z,13.35
2023-06-30T04:04:37.174Z,13.49
2023-06-30T04:07:04.549Z,13.63
2023-06-30T04:09:31.603Z,13.75
2023-06-30T04:11:58.547Z,13.88
2023-06-30T04:14:25.530Z,14.00
2023-06-30T04:16:52.548Z,14.11
2023-06-30T04:19:19.607Z,14.21
2023-06-30T04:21:47.533Z,14.31
2023-06-30T04:24:14.287Z,14.39
2023-06-30T04:26:41.174Z,14.46
2023-06-30T04:29:08.228Z,14.50
2023-06-30T04:31:36.302Z,14.53
2023-06-30T04:34:03.464Z,14.59
2023-06-30T04:36:30.626Z,14.68
2023-06-30T04:38:58.623Z,14.77
2023-06-30T04:41:26.164Z,14.87
2023-06-30T04:43:53.158Z,14.99
2023-06-30T04:46:20.227Z,15.11
2023-06-30T04:48:47.329Z,15.25
2023-06-30T04:51:15.986Z,15.41
2023-06-30T04:53:42.961Z,15.56
2023-06-30T04:56:10.422Z,15.72
2023-06-30T04:58:37.383Z,15.85
2023-06-30T05:01:05.572Z,15.97
2023-06-30T05:03:32.761Z,16.07
2023-06-30T05:05:59.962Z,16.17
2023-06-30T05:08:27.425Z,16.27
2023-06-30T05:10:54.489Z,16.36
2023-06-30T05:13:21.299Z,16.44
2023-06-30T05:15:48.677Z,16.52
2023-06-30T05:18:16.196Z,16.60
2023-06-30T05:20:43.308Z,16.68
2023-06-30T05:23:10.050Z,16.75
2023-06-30T05:25:38.132Z,16.80
2023-06-30T05:28:05.548Z,16.85
2023-06-30T05:31:05.444Z,16.91
2023-06-30T05:33:32.385Z,16.96
2023-06-30T05:35:59.301Z,17.00
2023-06-30T05:38:26.355Z,17.04
2023-06-30T05:40:53.789Z,17.06
2023-06-30T05:43:20.755Z,17.08
2023-06-30T05:45:50.162Z,17.10
2023-06-30T05:48:17.215Z,17.14
2023-06-30T05:50:46.051Z,17.17
2023-06-30T05:53:12.963Z,17.18
2023-06-30T05:55:40.028Z,17.20
2023-06-30T05:58:07.276Z,17.20
2023-06-30T06:00:34.356Z,17.21
2023-06-30T06:03:01.912Z,17.22
2023-06-30T06:05:29.466Z,17.27
2023-06-30T06:07:56.443Z,17.33
2023-06-30T06:10:23.301Z,17.40
2023-06-30T06:12:52.591Z,17.46
2023-06-30T06:15:19.592Z,17.53
2023-06-30T06:17:46.497Z,17.59
2023-06-30T06:20:13.383Z,17.69
2023-06-30T06:22:40.269Z,17.79
2023-06-30T06:25:08.033Z,17.91
2023-06-30T06:27:36.092Z,18.02
2023-06-30T06:30:05.907Z,18.14
2023-06-30T06:32:33.145Z,18.29
2023-06-30T06:35:00.350Z,18.43
2023-06-30T06:37:27.399Z,18.56
2023-06-30T06:39:54.309Z,18.70
2023-06-30T06:42:21.200Z,18.89
2023-06-30T06:44:48.972Z,19.07
2023-06-30T06:47:34.608Z,19.20
2023-06-30T06:50:03.435Z,19.33
2023-06-30T06:52:30.696Z,19.41
2023-06-30T06:54:57.750Z,19.53
2023-06-30T06:57:24.600Z,19.62
2023-06-30T06:59:51.721Z,19.72
2023-06-30T07:02:18.575Z,19.81
2023-06-30T07:04:45.585Z,19.88
2023-06-30T07:07:12.593Z,19.96
2023-06-30T07:09:39.459Z,20.03
2023-06-30T07:12:07.324Z,20.11
2023-06-30T07:14:34.787Z,20.16
2023-06-30T07:17:01.637Z,20.24
2023-06-30T07:19:28.695Z,20.36
2023-06-30T07:21:55.745Z,20.47
2023-06-30T07:24:23.486Z,20.56
2023-06-30T07:26:50.403Z,20.69
2023-06-30T07:29:17.353Z,20.79
2023-06-30T07:31:44.220Z,20.90
2023-06-30T07:34:11.442Z,21.08
2023-06-30T07:36:38.343Z,21.27
2023-06-30T07:39:05.737Z,21.44
2023-06-30T07:41:35.850Z,21.61
2023-06-30T07:44:03.936Z,21.75
2023-06-30T07:46:31.332Z,21.93
2023-06-30T07:48:58.434Z,22.09
2023-06-30T07:51:25.658Z,22.25
2023-06-30T07:53:52.652Z,22.42
2023-06-30T07:56:19.715Z,22.52
2023-06-30T07:58:46.617Z,22.56
2023-06-30T08:01:13.533Z,22.66
2023-06-30T08:03:40.908Z,22.76
2023-06-30T08:06:08.195Z,22.90
2023-06-30T08:08:35.249Z,23.02
2023-06-30T08:11:02.254Z,23.18
2023-06-30T08:13:29.185Z,23.26
2023-06-30T08:15:56.508Z,23.18
2023-06-30T08:18:27.915Z,23.05
2023-06-30T08:20:59.986Z,23.10
2023-06-30T08:23:27.178Z,23.33
2023-06-30T08:25:55.795Z,23.62
2023-06-30T08:28:22.665Z,23.92
2023-06-30T08:30:49.562Z,24.18
2023-06-30T08:33:30.585Z,24.38
2023-06-30T08:36:05.092Z,24.55
2023-06-30T08:38:32.284Z,24.66
2023-06-30T08:41:00.666Z,24.67
2023-06-30T08:43:29.066Z,24.67
2023-06-30T08:45:56.490Z,24.61
2023-06-30T08:48:24.263Z,24.48
2023-06-30T08:50:53.078Z,24.35
2023-06-30T08:53:20.937Z,24.19
2023-06-30T08:55:47.884Z,24.09
2023-06-30T08:58:25.448Z,23.97
2023-06-30T09:00:54.198Z,23.88
2023-06-30T09:03:21.646Z,23.92
2023-06-30T09:05:50.631Z,24.15
2023-06-30T09:08:22.093Z,24.56
2023-06-30T09:10:49.231Z,25.00
2023-06-30T09:13:18.143Z,25.35
2023-06-30T09:15:46.407Z,25.73
2023-06-30T09:18:13.638Z,26.16
2023-06-30T09:20:41.117Z,26.63
2023-06-30T09:23:08.190Z,26.87
2023-06-30T09:25:36.390Z,26.85
2023-06-30T09:28:08.229Z,26.96
2023-06-30T09:30:35.707Z,26.99
2023-06-30T09:33:02.791Z,27.01
2023-06-30T09:35:46.681Z,27.08
2023-06-30T09:38:17.949Z,27.30
2023-06-30T09:40:50.916Z,27.59
2023-06-30T09:43:20.751Z,27.76
2023-06-30T09:45:53.682Z,27.69
2023-06-30T09:48:20.728Z,27.66
2023-06-30T09:50:47.576Z,27.95
2023-06-30T09:53:20.530Z,28.10
2023-06-30T09:55:51.174Z,28.27
2023-06-30T09:58:19.575Z,28.26
2023-06-30T10:00:46.916Z,28.15
2023-06-30T10:03:20.398Z,27.92
2023-06-30T10:05:50.816Z,27.89
2023-06-30T10:08:17.879Z,28.18
2023-06-30T10:10:44.937Z,28.40
2023-06-30T10:13:13.622Z,28.43
2023-06-30T10:15:41.056Z,28.57
2023-06-30T10:18:13.050Z,28.52
2023-06-30T10:20:47.822Z,28.52
2023-06-30T10:23:18.695Z,28.53
2023-06-30T10:25:45.637Z,28.15
2023-06-30T10:28:13.850Z,27.78
2023-06-30T10:30:40.723Z,27.62
2023-06-30T10:33:07.635Z,27.57
2023-06-30T10:35:35.533Z,27.54
2023-06-30T10:38:02.690Z,27.64
2023-06-30T10:40:30.622Z,28.05
2023-06-30T10:42:58.126Z,28.05
2023-06-30T10:45:33.576Z,27.92
2023-06-30T10:48:10.103Z,27.91
2023-06-30T10:50:56.509Z,28.15
2023-06-30T10:53:23.543Z,28.23
2023-06-30T10:55:55.082Z,28.35
2023-06-30T10:58:25.369Z,28.21
2023-06-30T11:01:05.041Z,28.23
2023-06-30T11:03:58.855Z,28.34
2023-06-30T11:06:26.597Z,28.50
2023-06-30T11:09:12.995Z,28.50
2023-06-30T11:11:49.269Z,28.61
2023-06-30T11:14:30.163Z,28.75
2023-06-30T11:17:04.296Z,29.10
2023-06-30T11:19:31.481Z,29.48
2023-06-30T11:22:17.366Z,29.66
2023-06-30T11:24:44.480Z,30.00
2023-06-30T11:27:11.595Z,30.12
2023-06-30T11:29:40.461Z,30.21
2023-06-30T11:32:08.113Z,30.26
2023-06-30T11:34:36.003Z,30.09
2023-06-30T11:37:06.212Z,29.95
2023-06-30T11:39:34.907Z,29.93
2023-06-30T11:42:02.048Z,30.01
2023-06-30T11:44:29.272Z,29.87
2023-06-30T11:46:58.743Z,29.79
2023-06-30T11:49:27.185Z,29.87
2023-06-30T11:51:53.948Z,29.87
2023-06-30T11:54:29.068Z,29.85
2023-06-30T11:56:57.563Z,29.91
2023-06-30T11:59:27.493Z,29.94
2023-06-30T12:01:54.525Z,29.79
2023-06-30T12:04:21.639Z,29.43
2023-06-30T12:06:49.372Z,29.29
2023-06-30T12:09:16.431Z,29.04
2023-06-30T12:11:44.736Z,28.82
2023-06-30T12:14:15.234Z,28.73
2023-06-30T12:16:43.114Z,28.86
2023-06-30T12:19:10.969Z,29.25
2023-06-30T12:21:51.318Z,29.39
2023-06-30T12:24:19.413Z,29.41
2023-06-30T12:26:46.586Z,29.43
2023-06-30T12:29:13.306Z,29.47
2023-06-30T12:31:42.059Z,29.55
2023-06-30T12:34:09.179Z,29.80
2023-06-30T12:36:36.169Z,29.74
2023-06-30T12:39:03.160Z,29.63
2023-06-30T12:41:30.821Z,29.76
2023-06-30T12:43:59.062Z,29.72
2023-06-30T12:46:26.606Z,29.61
2023-06-30T12:48:53.616Z,29.34
2023-06-30T12:51:20.492Z,28.94
2023-06-30T12:53:47.589Z,28.79
2023-06-30T12:56:14.764Z,28.77
2023-06-30T12:58:41.673Z,28.73
2023-06-30T13:01:08.586Z,28.77
2023-06-30T13:03:35.826Z,28.92
2023-06-30T13:06:03.518Z,29.12
2023-06-30T13:08:30.410Z,29.00
2023-06-30T13:10:57.335Z,28.78
2023-06-30T13:13:24.278Z,28.62
2023-06-30T13:15:51.953Z,28.36
2023-06-30T13:18:18.772Z,28.19
2023-06-30T13:20:45.736Z,28.01
2023-06-30T13:23:17.555Z,27.93
2023-06-30T13:25:55.030Z,27.84
2023-06-30T13:28:22.219Z,27.72
2023-06-30T13:30:49.081Z,27.66
2023-06-30T13:33:15.879Z,27.65
2023-06-30T13:35:42.888Z,27.58
2023-06-30T13:38:11.533Z,27.46
2023-06-30T13:40:38.468Z,27.48
2023-06-30T13:43:06.665Z,27.51
2023-06-30T13:45:33.753Z,27.60
2023-06-30T13:48:00.738Z,27.60
2023-06-30T13:50:28.605Z,27.68
2023-06-30T13:52:55.418Z,27.92
2023-06-30T13:55:22.226Z,28.15
2023-06-30T13:57:48.999Z,28.54
2023-06-30T14:00:16.140Z,28.97
2023-06-30T14:02:42.983Z,29.25
2023-06-30T14:05:10.067Z,29.08
2023-06-30T14:07:36.928Z,28.93
2023-06-30T14:10:04.968Z,28.69
2023-06-30T14:12:31.781Z,28.34
2023-06-30T14:14:58.642Z,28.14
2023-06-30T14:17:25.552Z,27.94
2023-06-30T14:19:52.304Z,27.66
2023-06-30T14:22:19.230Z,27.49
2023-06-30T14:24:46.368Z,27.40
2023-06-30T14:27:13.139Z,27.40
2023-06-30T14:29:42.949Z,27.47
2023-06-30T14:32:10.188Z,27.55
2023-06-30T14:34:37.211Z,27.46
2023-06-30T14:37:04.156Z,27.46
2023-06-30T14:39:30.937Z,27.50
2023-06-30T14:42:02.769Z,27.56
2023-06-30T14:44:29.897Z,27.59
2023-06-30T14:46:57.092Z,27.70
2023-06-30T14:49:23.953Z,27.74
2023-06-30T14:51:50.828Z,27.71
2023-06-30T14:54:17.664Z,27.76
2023-06-30T14:56:44.503Z,27.78
2023-06-30T14:59:11.233Z,27.85
2023-06-30T15:01:38.103Z,28.10
2023-06-30T15:04:05.080Z,28.22
2023-06-30T15:06:32.285Z,28.19
2023-06-30T15:08:59.149Z,28.06
2023-06-30T15:11:25.931Z,27.80
2023-06-30T15:13:52.902Z,27.61
2023-06-30T15:16:19.834Z,27.44
2023-06-30T15:18:46.839Z,27.29
2023-06-30T15:21:13.736Z,27.12
2023-06-30T15:23:40.536Z,26.90
2023-06-30T15:26:07.496Z,26.70
2023-06-30T15:28:34.685Z,26.51
2023-06-30T15:31:01.600Z,26.43
2023-06-30T15:33:28.612Z,26.37
2023-06-30T15:35:56.548Z,26.34
2023-06-30T15:38:23.272Z,26.33
2023-06-30T15:40:52.990Z,26.21
2023-06-30T15:43:23.300Z,26.16
2023-06-30T15:45:52.236Z,26.09
2023-06-30T15:48:19.257Z,26.00
2023-06-30T15:50:47.488Z,25.90
2023-06-30T15:53:14.814Z,25.84
2023-06-30T15:55:43.118Z,25.83
2023-06-30T15:58:10.326Z,25.79
2023-06-30T16:00:37.212Z,25.77
2023-06-30T16:03:04.410Z,25.73
2023-06-30T16:05:31.503Z,25.73
2023-06-30T16:07:58.628Z,25.75
2023-06-30T16:10:25.475Z,25.82
2023-06-30T16:12:52.290Z,25.90
2023-06-30T16:15:19.330Z,26.01
2023-06-30T16:17:46.207Z,26.01
2023-06-30T16:20:13.118Z,26.06
2023-06-30T16:22:40.076Z,26.14
2023-06-30T16:25:07.230Z,26.23
2023-06-30T16:27:34.128Z,26.33
2023-06-30T16:30:23.864Z,26.36
2023-06-30T16:32:53.407Z,26.39
2023-06-30T16:35:20.958Z,26.40
2023-06-30T16:37:47.843Z,26.34
2023-06-30T16:40:14.785Z,26.21
2023-06-30T16:42:42.276Z,26.22
2023-06-30T16:45:09.814Z,26.31
2023-06-30T16:47:37.388Z,26.44
2023-06-30T16:50:05.178Z,26.54
2023-06-30T16:52:36.733Z,26.65
2023-06-30T16:55:04.568Z,26.75
2023-06-30T16:57:32.166Z,26.82
2023-06-30T17:00:02.029Z,26.89
2023-06-30T17:02:29.171Z,26.93
2023-06-30T17:04:56.289Z,26.91
2023-06-30T17:07:23.158Z,26.80
2023-06-30T17:09:50.227Z,26.72
2023-06-30T17:12:17.575Z,26.64
2023-06-30T17:14:44.607Z,26.57
2023-06-30T17:17:12.987Z,26.51
2023-06-30T17:19:39.956Z,26.40
2023-06-30T17:22:06.891Z,26.29
2023-06-30T17:24:33.900Z,26.19
2023-06-30T17:27:00.662Z,26.10
2023-06-30T17:29:27.623Z,25.88
2023-06-30T17:31:54.624Z,25.63
2023-06-30T17:34:21.666Z,25.45
2023-06-30T17:36:48.580Z,25.33
2023-06-30T17:39:15.360Z,25.20
2023-06-30T17:41:42.157Z,25.09
2023-06-30T17:44:09.145Z,24.99
2023-06-30T17:46:36.229Z,24.86
2023-06-30T17:49:23.098Z,24.75
2023-06-30T17:51:51.248Z,24.61
2023-06-30T17:54:20.237Z,24.49
2023-06-30T17:56:48.976Z,24.35
2023-06-30T17:59:16.001Z,24.22
2023-06-30T18:01:43.993Z,24.08
2023-06-30T18:04:11.271Z,23.92
2023-06-30T18:06:40.192Z,23.76
2023-06-30T18:09:07.267Z,23.61
2023-06-30T18:11:34.289Z,23.45
2023-06-30T18:14:01.083Z,23.31
2023-06-30T18:16:29.512Z,23.15
2023-06-30T18:18:56.352Z,23.00
2023-06-30T18:21:23.207Z,22.85
2023-06-30T18:23:50.157Z,22.71
2023-06-30T18:26:17.009Z,22.56
2023-06-30T18:28:44.068Z,22.41
2023-06-30T18:31:10.842Z,22.26
2023-06-30T18:33:37.706Z,22.11
2023-06-30T18:36:04.598Z,21.97
2023-06-30T18:38:31.399Z,21.81
2023-06-30T18:40:58.384Z,21.67
2023-06-30T18:43:25.220Z,21.54
2023-06-30T18:45:52.166Z,21.41
2023-06-30T18:48:18.985Z,21.28
2023-06-30T18:50:45.940Z,21.16
2023-06-30T18:53:12.718Z,21.04
2023-06-30T18:55:39.575Z,20.92
2023-06-30T18:58:06.372Z,20.79
2023-06-30T19:00:33.375Z,20.68
2023-06-30T19:03:00.611Z,20.58
2023-06-30T19:05:27.733Z,20.48
2023-06-30T19:07:54.632Z,20.39
2023-06-30T19:10:21.630Z,20.29
2023-06-30T19:12:48.504Z,20.20
2023-06-30T19:15:15.512Z,20.11
2023-06-30T19:17:43.557Z,20.00
2023-06-30T19:20:10.917Z,19.88
2023-06-30T19:22:37.803Z,19.77
2023-06-30T19:25:04.881Z,19.68
2023-06-30T19:27:31.798Z,19.59
2023-06-30T19:30:00.236Z,19.51
2023-06-30T19:32:27.214Z,19.45
2023-06-30T19:34:54.037Z,19.38
2023-06-30T19:37:21.009Z,19.31
2023-06-30T19:39:47.759Z,19.23
2023-06-30T19:42:14.743Z,19.17
2023-06-30T19:44:41.602Z,19.10
2023-06-30T19:47:08.428Z,19.04
2023-06-30T19:49:35.276Z,18.97
2023-06-30T19:52:02.173Z,18.90
2023-06-30T19:54:29.037Z,18.84
2023-06-30T19:56:55.922Z,18.75
2023-06-30T19:59:22.766Z,18.65
2023-06-30T20:01:49.918Z,18.55
2023-06-30T20:04:16.861Z,18.47
2023-06-30T20:06:43.704Z,18.41
2023-06-30T20:09:10.666Z,18.35
2023-06-30T20:11:37.651Z,18.27
2023-06-30T20:14:04.767Z,18.22
2023-06-30T20:16:31.941Z,18.16
2023-06-30T20:18:59.189Z,18.10
2023-06-30T20:21:26.439Z,18.03
2023-06-30T20:23:53.425Z,17.93
2023-06-30T20:26:20.538Z,17.79
2023-06-30T20:28:47.687Z,17.63
2023-06-30T20:31:14.870Z,17.54
2023-06-30T20:33:42.200Z,17.43
2023-06-30T20:36:09.460Z,17.36
2023-06-30T20:38:36.419Z,17.29
2023-06-30T20:41:04.285Z,17.22
2023-06-30T20:43:31.548Z,17.17
2023-06-30T20:45:58.495Z,17.15
2023-06-30T20:48:25.340Z,17.13
2023-06-30T20:50:52.410Z,17.10
2023-06-30T20:53:19.568Z,17.06
2023-06-30T20:55:46.818Z,17.00
2023-06-30T20:58:13.677Z,16.93
2023-06-30T21:00:40.783Z,16.88
2023-06-30T21:03:07.726Z,16.85
2023-06-30T21:05:34.923Z,16.83
2023-06-30T21:08:01.977Z,16.83
2023-06-30T21:10:28.928Z,16.81
2023-06-30T21:13:00.107Z,16.80
2023-06-30T21:15:30.104Z,16.75
2023-06-30T21:17:57.386Z,16.72
2023-06-30T21:20:24.410Z,16.69
2023-06-30T21:22:51.463Z,16.64
2023-06-30T21:25:18.619Z,16.57
2023-06-30T21:27:45.574Z,16.51
2023-06-30T21:30:13.232Z,16.48
2023-06-30T21:32:40.425Z,16.45
2023-06-30T21:35:07.614Z,16.42
2023-06-30T21:37:34.502Z,16.41
2023-06-30T21:40:01.578Z,16.39
2023-06-30T21:42:28.706Z,16.38
2023-06-30T21:44:55.659Z,16.37
2023-06-30T21:47:22.546Z,16.34
2023-06-30T21:49:49.682Z,16.28
2023-06-30T21:52:16.919Z,16.26
2023-06-30T21:54:48.444Z,16.22
2023-06-30T21:57:16.660Z,16.20
2023-06-30T21:59:43.707Z,16.15
2023-06-30T22:02:10.957Z,16.13
2023-06-30T22:04:38.262Z,16.11
2023-06-30T22:07:05.391Z,16.08
2023-06-30T22:09:33.679Z,16.05
2023-06-30T22:12:00.612Z,16.01
2023-06-30T22:14:27.883Z,15.95
2023-06-30T22:16:54.921Z,15.91
2023-06-30T22:19:22.188Z,15.88
2023-06-30T22:21:49.284Z,15.86
2023-06-30T22:24:16.395Z,15.86
2023-06-30T22:26:43.448Z,15.86
2023-06-30T22:29:10.393Z,15.86
2023-06-30T22:31:37.572Z,15.83
2023-06-30T22:34:04.708Z,15.79
2023-06-30T22:36:31.661Z,15.72
2023-06-30T22:38:58.717Z,15.73
2023-06-30T22:41:26.284Z,15.69
2023-06-30T22:43:53.107Z,15.65
2023-06-30T22:46:20.081Z,15.61
2023-06-30T22:48:47.033Z,15.56
2023-06-30T22:51:15.824Z,15.52
2023-06-30T22:53:42.926Z,15.49
2023-06-30T22:56:09.846Z,15.47
2023-06-30T22:58:36.783Z,15.45
2023-06-30T23:01:06.107Z,15.43
2023-06-30T23:03:33.204Z,15.39
2023-06-30T23:06:00.256Z,15.37
2023-06-30T23:08:27.348Z,15.35
2023-06-30T23:10:54.408Z,15.35
2023-06-30T23:13:21.394Z,15.36
2023-06-30T23:15:48.920Z,15.37
2023-06-30T23:18:19.866Z,15.34
2023-06-30T23:20:47.775Z,15.31
2023-06-30T23:23:15.299Z,15.29
2023-06-30T23:25:42.657Z,15.28
2023-06-30T23:28:09.809Z,15.28
2023-06-30T23:30:37.166Z,15.30
2023-06-30T23:33:04.616Z,15.30
2023-06-30T23:35:31.997Z,15.31
2023-06-30T23:37:58.945Z,15.32
2023-06-30T23:40:25.995Z,15.34
2023-06-30T23:42:52.928Z,15.36
2023-06-30T23:45:20.056Z,15.37
2023-06-30T23:47:47.152Z,15.36
2023-06-30T23:50:15.033Z,15.36
2023-06-30T23:52:42.082Z,15.35
2023-06-30T23:55:09.344Z,15.36
2023-06-30T23:57:36.197Z,15.36
